createdAt,value
2022-11-08T00:03:43.636Z,10.63
2022-11-08T00:06:03.935Z,8.93
2022-11-08T00:08:24.465Z,7.55
2022-11-08T00:10:45.028Z,10.23
2022-11-08T00:13:05.695Z,15.20
2022-11-08T00:15:08.474Z,11.73
2022-11-08T00:17:10.775Z,9.32
2022-11-08T00:19:12.923Z,6.57
2022-11-08T00:21:15.119Z,10.75
2022-11-08T00:23:17.133Z,11.77
2022-11-08T00:25:19.610Z,10.05
2022-11-08T00:27:23.562Z,10.18
2022-11-08T00:29:25.512Z,14.18
2022-11-08T00:31:27.914Z,10.80
2022-11-08T00:33:30.865Z,9.45
2022-11-08T00:35:32.856Z,12.88
2022-11-08T00:37:34.456Z,9.10
2022-11-08T00:39:36.517Z,11.30
2022-11-08T00:41:43.729Z,13.27
2022-11-08T00:43:45.967Z,7.13
2022-11-08T00:45:48.042Z,11.95
2022-11-08T00:47:50.037Z,11.93
2022-11-08T00:49:52.083Z,12.50
2022-11-08T00:51:54.279Z,12.68
2022-11-08T00:53:56.373Z,8.18
2022-11-08T00:56:03.460Z,18.20
2022-11-08T00:58:05.641Z,8.25
2022-11-08T01:00:08.502Z,12.82
2022-11-08T01:02:10.627Z,9.50
2022-11-08T01:04:14.647Z,9.52
2022-11-08T01:06:18.553Z,13.20
2022-11-08T01:08:22.553Z,13.45
2022-11-08T01:10:24.668Z,13.57
2022-11-08T01:12:26.713Z,12.20
2022-11-08T01:14:28.902Z,15.68
2022-11-08T01:16:33.524Z,12.02
2022-11-08T01:18:35.832Z,18.58
2022-11-08T01:20:42.234Z,10.88
2022-11-08T01:22:44.171Z,10.32
2022-11-08T01:24:46.272Z,13.65
2022-11-08T01:26:51.096Z,22.35
2022-11-08T01:28:54.154Z,15.45
2022-11-08T01:30:56.300Z,9.88
2022-11-08T01:32:58.675Z,14.07
2022-11-08T01:35:00.633Z,15.73
2022-11-08T01:37:02.656Z,8.63
2022-11-08T01:39:04.326Z,17.20
2022-11-08T01:41:07.202Z,9.32
2022-11-08T01:43:31.343Z,9.70
2022-11-08T01:46:11.119Z,12.55
2022-11-08T01:48:13.161Z,13.52
2022-11-08T01:50:18.607Z,17.80
2022-11-08T01:52:40.462Z,11.95
2022-11-08T01:54:57.506Z,12.85
2022-11-08T01:57:02.803Z,23.25
2022-11-08T01:59:08.144Z,12.23
2022-11-08T02:01:10.605Z,11.20
2022-11-08T02:03:16.826Z,12.45
2022-11-08T02:05:26.421Z,12.45
2022-11-08T02:07:31.256Z,9.75
2022-11-08T02:09:36.340Z,10.50
2022-11-08T02:11:46.496Z,14.27
2022-11-08T02:13:48.461Z,13.48
2022-11-08T02:15:51.102Z,13.70
2022-11-08T02:17:55.026Z,15.95
2022-11-08T02:19:57.053Z,10.00
2022-11-08T02:22:03.725Z,13.98
2022-11-08T02:24:11.160Z,8.52
2022-11-08T02:26:14.478Z,7.10
2022-11-08T02:28:16.915Z,9.85
2022-11-08T02:30:19.286Z,10.57
2022-11-08T02:32:21.401Z,11.70
2022-11-08T02:34:38.005Z,15.00
2022-11-08T02:36:40.525Z,14.55
2022-11-08T02:38:47.239Z,13.07
2022-11-08T02:40:53.982Z,13.25
2022-11-08T02:42:55.990Z,13.07
2022-11-08T02:44:58.369Z,7.13
2022-11-08T02:47:00.290Z,12.57
2022-11-08T02:49:02.268Z,11.38
2022-11-08T02:51:04.580Z,13.30
2022-11-08T02:53:06.885Z,8.57
2022-11-08T02:55:08.941Z,8.70
2022-11-08T02:57:11.038Z,16.20
2022-11-08T02:59:13.290Z,8.70
2022-11-08T03:01:15.417Z,13.18
2022-11-08T03:03:17.741Z,12.63
2022-11-08T03:05:21.329Z,7.80
2022-11-08T03:07:25.014Z,6.72
2022-11-08T03:09:29.780Z,14.57
2022-11-08T03:11:38.297Z,12.93
2022-11-08T03:13:40.341Z,7.95
2022-11-08T03:15:43.369Z,8.70
2022-11-08T03:17:45.343Z,8.63
2022-11-08T03:19:47.452Z,6.20
2022-11-08T03:21:49.880Z,6.47
2022-11-08T03:23:51.996Z,4.32
2022-11-08T03:25:54.776Z,10.45
2022-11-08T03:27:56.901Z,10.00
2022-11-08T03:29:58.522Z,11.07
2022-11-08T03:32:00.858Z,7.25
2022-11-08T03:34:02.776Z,10.20
2022-11-08T03:36:05.270Z,6.63
2022-11-08T03:38:07.245Z,8.63
2022-11-08T03:40:09.935Z,7.93
2022-11-08T03:42:11.578Z,7.63
2022-11-08T03:44:23.755Z,11.63
2022-11-08T03:46:25.736Z,13.07
2022-11-08T03:48:27.906Z,12.65
2022-11-08T03:50:29.954Z,12.27
2022-11-08T03:52:31.976Z,8.20
2022-11-08T03:54:34.277Z,7.60
2022-11-08T03:56:36.204Z,8.88
2022-11-08T03:58:38.372Z,4.78
2022-11-08T04:00:40.606Z,8.77
2022-11-08T04:02:42.915Z,8.45
2022-11-08T04:04:45.020Z,13.25
2022-11-08T04:06:47.330Z,11.93
2022-11-08T04:08:49.334Z,6.45
2022-11-08T04:10:55.360Z,6.78
2022-11-08T04:13:18.484Z,8.57
2022-11-08T04:15:22.572Z,6.53
2022-11-08T04:17:44.517Z,10.95
2022-11-08T04:20:05.239Z,10.77
2022-11-08T04:22:10.341Z,10.27
2022-11-08T04:24:12.676Z,8.02
2022-11-08T04:26:14.975Z,5.82
2022-11-08T04:28:17.407Z,13.18
2022-11-08T04:30:19.599Z,10.20
2022-11-08T04:32:21.770Z,13.60
2022-11-08T04:34:23.727Z,7.55
2022-11-08T04:36:25.770Z,12.85
2022-11-08T04:38:27.860Z,9.38
2022-11-08T04:40:32.008Z,7.35
2022-11-08T04:42:33.959Z,11.70
2022-11-08T04:44:40.464Z,9.40
2022-11-08T04:46:42.430Z,9.15
2022-11-08T04:48:49.790Z,7.65
2022-11-08T04:50:51.847Z,6.47
2022-11-08T04:52:56.778Z,4.47
2022-11-08T04:54:58.871Z,8.70
2022-11-08T04:57:00.910Z,3.95
2022-11-08T04:59:02.968Z,5.22
2022-11-08T05:01:06.944Z,5.93
2022-11-08T05:03:10.259Z,16.60
2022-11-08T05:05:12.329Z,5.32
2022-11-08T05:07:14.713Z,9.85
2022-11-08T05:09:16.741Z,9.35
2022-11-08T05:11:24.169Z,8.00
2022-11-08T05:13:26.367Z,10.75
2022-11-08T05:15:28.736Z,6.18
2022-11-08T05:17:30.834Z,7.20
2022-11-08T05:19:50.993Z,8.07
2022-11-08T05:22:11.375Z,7.57
2022-11-08T05:24:15.823Z,10.05
2022-11-08T05:26:20.045Z,4.93
2022-11-08T05:28:22.618Z,10.98
2022-11-08T05:30:24.625Z,7.93
2022-11-08T05:32:26.688Z,6.75
2022-11-08T05:34:30.083Z,9.95
2022-11-08T05:36:32.087Z,7.25
2022-11-08T05:38:35.025Z,5.10
2022-11-08T05:40:36.979Z,3.08
2022-11-08T05:42:39.121Z,9.10
2022-11-08T05:44:41.286Z,2.85
2022-11-08T05:46:43.338Z,8.70
2022-11-08T05:48:50.173Z,7.78
2022-11-08T05:50:52.551Z,8.25
2022-11-08T05:52:55.316Z,7.75
2022-11-08T05:54:57.498Z,8.45
2022-11-08T05:56:59.574Z,10.32
2022-11-08T05:59:01.603Z,5.70
2022-11-08T06:01:07.199Z,4.78
2022-11-08T06:03:09.710Z,4.10
2022-11-08T06:05:12.133Z,4.95
2022-11-08T06:07:15.023Z,4.60
2022-11-08T06:09:17.139Z,6.03
2022-11-08T06:11:23.867Z,8.32
2022-11-08T06:13:26.017Z,6.55
2022-11-08T06:15:28.155Z,5.38
2022-11-08T06:17:30.476Z,4.85
2022-11-08T06:19:32.640Z,9.82
2022-11-08T06:21:38.831Z,4.90
2022-11-08T06:23:41.627Z,3.88
2022-11-08T06:25:47.395Z,4.68
2022-11-08T06:27:49.691Z,3.75
2022-11-08T06:29:51.929Z,5.10
2022-11-08T06:31:54.246Z,6.75
2022-11-08T06:33:56.264Z,4.68
2022-11-08T06:35:58.485Z,5.22
2022-11-08T06:38:04.609Z,7.68
2022-11-08T06:40:11.192Z,4.82
2022-11-08T06:42:14.473Z,9.15
2022-11-08T06:44:16.752Z,3.38
2022-11-08T06:46:18.505Z,5.82
2022-11-08T06:48:20.123Z,6.43
2022-11-08T06:50:21.779Z,3.92
2022-11-08T06:52:23.404Z,4.00
2022-11-08T06:54:26.870Z,7.65
2022-11-08T06:56:30.229Z,3.90
2022-11-08T06:58:32.328Z,9.50
2022-11-08T07:00:34.124Z,5.53
2022-11-08T07:02:35.815Z,9.38
2022-11-08T07:04:37.669Z,8.23
2022-11-08T07:06:39.301Z,10.15
2022-11-08T07:08:40.929Z,7.57
2022-11-08T07:10:42.532Z,8.30
2022-11-08T07:12:44.432Z,5.72
2022-11-08T07:14:46.041Z,12.73
2022-11-08T07:16:47.955Z,9.75
2022-11-08T07:18:51.464Z,7.18
2022-11-08T07:20:53.220Z,8.68
2022-11-08T07:22:56.159Z,11.05
2022-11-08T07:24:58.165Z,13.13
2022-11-08T07:26:59.825Z,7.15
2022-11-08T07:29:01.512Z,20.65
2022-11-08T07:31:04.871Z,9.35
2022-11-08T07:33:06.507Z,7.53
2022-11-08T07:35:08.382Z,8.20
2022-11-08T07:37:10.111Z,17.88
2022-11-08T07:39:11.811Z,15.73
2022-11-08T07:41:13.505Z,13.10
2022-11-08T07:43:16.106Z,13.40
2022-11-08T07:45:17.769Z,19.88
2022-11-08T07:47:19.388Z,23.23
2022-11-08T07:49:21.120Z,16.13
2022-11-08T07:51:22.844Z,16.45
2022-11-08T07:53:24.731Z,11.98
2022-11-08T07:55:27.577Z,28.63
2022-11-08T07:57:29.653Z,19.27
2022-11-08T07:59:31.256Z,16.55
2022-11-08T08:01:37.967Z,11.77
2022-11-08T08:03:39.868Z,18.85
2022-11-08T08:05:43.905Z,20.58
2022-11-08T08:07:45.588Z,19.77
2022-11-08T08:09:47.376Z,20.58
2022-11-08T08:11:49.142Z,22.73
2022-11-08T08:13:50.827Z,15.80
2022-11-08T08:15:52.545Z,18.00
2022-11-08T08:17:54.209Z,23.50
2022-11-08T08:19:55.828Z,16.67
2022-11-08T08:21:57.536Z,30.65
2022-11-08T08:23:59.279Z,17.70
2022-11-08T08:26:03.410Z,15.77
2022-11-08T08:28:06.070Z,16.73
2022-11-08T08:30:08.325Z,21.30
2022-11-08T08:32:09.965Z,22.90
2022-11-08T08:34:11.812Z,17.17
2022-11-08T08:36:13.601Z,20.45
2022-11-08T08:38:15.263Z,16.45
2022-11-08T08:40:17.069Z,21.70
2022-11-08T08:42:18.717Z,28.38
2022-11-08T08:44:20.430Z,17.70
2022-11-08T08:46:22.085Z,23.00
2022-11-08T08:48:23.733Z,27.52
2022-11-08T08:50:27.988Z,24.95
2022-11-08T08:52:29.678Z,13.18
2022-11-08T08:54:31.397Z,19.25
2022-11-08T08:56:33.142Z,16.20
2022-11-08T08:58:35.049Z,16.90
2022-11-08T09:03:09.665Z,18.98
2022-11-08T09:05:13.211Z,24.88
2022-11-08T09:07:15.387Z,20.08
2022-11-08T09:09:17.108Z,14.38
2022-11-08T09:11:18.750Z,21.40
2022-11-08T09:13:21.073Z,18.20
2022-11-08T09:15:22.909Z,17.70
2022-11-08T09:17:24.613Z,17.35
2022-11-08T09:19:26.463Z,20.13
2022-11-08T09:21:40.449Z,15.55
2022-11-08T09:23:42.444Z,18.33
2022-11-08T09:25:44.112Z,20.52
2022-11-08T09:27:45.906Z,21.58
2022-11-08T09:29:47.519Z,19.02
2022-11-08T09:31:49.869Z,11.35
2022-11-08T09:33:51.702Z,17.40
2022-11-08T09:35:54.006Z,17.13
2022-11-08T09:37:55.904Z,20.08
2022-11-08T09:39:57.592Z,17.63
2022-11-08T09:42:28.345Z,18.50
2022-11-08T09:45:15.388Z,15.88
2022-11-08T09:47:23.738Z,19.77
2022-11-08T09:49:41.350Z,17.92
2022-11-08T09:51:47.986Z,17.08
2022-11-08T09:53:56.740Z,13.85
2022-11-08T09:56:19.564Z,17.35
2022-11-08T09:59:01.980Z,25.35
2022-11-08T10:01:04.583Z,14.68
2022-11-08T10:03:09.254Z,18.90
2022-11-08T10:05:17.729Z,17.17
2022-11-08T10:07:33.350Z,15.93
2022-11-08T10:09:48.836Z,19.50
2022-11-08T10:12:07.639Z,24.77
2022-11-08T10:14:18.498Z,19.75
2022-11-08T10:16:30.195Z,23.38
2022-11-08T10:18:45.002Z,19.92
2022-11-08T10:20:46.642Z,12.70
2022-11-08T10:23:11.604Z,17.33
2022-11-08T10:25:24.685Z,15.73
2022-11-08T10:27:41.160Z,16.35
2022-11-08T10:29:45.798Z,24.92
2022-11-08T10:31:52.099Z,15.35
2022-11-08T10:33:56.270Z,9.70
2022-11-08T10:36:09.378Z,14.45
2022-11-08T10:38:20.061Z,17.08
2022-11-08T10:40:33.868Z,26.10
2022-11-08T10:42:44.372Z,19.77
2022-11-08T10:44:46.923Z,9.52
2022-11-08T10:46:57.339Z,12.35
2022-11-08T10:49:10.978Z,17.17
2022-11-08T10:51:12.592Z,16.95
2022-11-08T10:53:35.084Z,14.43
2022-11-08T10:55:47.838Z,15.80
2022-11-08T10:57:49.488Z,15.73
2022-11-08T10:59:52.352Z,16.40
2022-11-08T11:01:54.004Z,19.25
2022-11-08T11:03:55.632Z,14.70
2022-11-08T11:06:02.967Z,15.75
2022-11-08T11:08:07.612Z,14.25
2022-11-08T11:10:25.460Z,17.58
2022-11-08T11:12:27.216Z,10.30
2022-11-08T11:14:28.840Z,6.57
2022-11-08T11:16:30.528Z,10.68
2022-11-08T11:18:39.332Z,11.23
2022-11-08T11:20:41.007Z,9.43
2022-11-08T11:22:46.470Z,8.30
2022-11-08T11:24:52.727Z,10.82
2022-11-08T11:26:57.310Z,10.75
2022-11-08T11:29:04.807Z,15.40
2022-11-08T11:31:17.116Z,14.82
2022-11-08T11:33:25.276Z,16.42
2022-11-08T11:35:35.803Z,12.45
2022-11-08T11:37:46.822Z,15.07
2022-11-08T11:40:24.483Z,13.35
2022-11-08T11:42:45.803Z,12.40
2022-11-08T11:45:05.607Z,16.15
2022-11-08T11:47:21.484Z,17.92
2022-11-08T11:49:25.926Z,12.27
2022-11-08T11:51:38.107Z,11.23
2022-11-08T11:53:47.529Z,15.65
2022-11-08T11:56:15.200Z,14.13
2022-11-08T11:58:44.682Z,16.83
2022-11-08T12:00:56.019Z,14.25
2022-11-08T12:03:23.163Z,17.05
2022-11-08T12:05:43.280Z,18.73
2022-11-08T12:07:56.846Z,11.32
2022-11-08T12:10:07.427Z,21.98
2022-11-08T12:12:49.007Z,23.13
2022-11-08T12:15:02.926Z,14.05
2022-11-08T12:17:10.675Z,17.58
2022-11-08T12:19:29.616Z,15.82
2022-11-08T12:21:49.733Z,15.00
2022-11-08T12:24:22.413Z,15.82
2022-11-08T12:26:43.132Z,14.98
2022-11-08T12:29:12.828Z,14.00
2022-11-08T12:31:18.052Z,15.27
2022-11-08T12:33:43.634Z,18.52
2022-11-08T12:36:02.291Z,19.50
2022-11-08T12:38:18.167Z,14.85
2022-11-08T12:40:40.191Z,10.77
2022-11-08T12:43:21.709Z,16.35
2022-11-08T12:45:43.982Z,17.35
2022-11-08T12:48:18.328Z,20.60
2022-11-08T12:50:21.686Z,13.20
2022-11-08T12:52:23.293Z,14.20
2022-11-08T12:54:37.656Z,12.80
2022-11-08T12:56:43.997Z,13.73
2022-11-08T12:58:54.575Z,17.77
2022-11-08T13:01:07.910Z,17.25
2022-11-08T13:03:32.733Z,18.13
2022-11-08T13:05:52.492Z,24.23
2022-11-08T13:08:22.185Z,11.88
2022-11-08T13:10:39.198Z,15.13
2022-11-08T13:12:49.047Z,23.65
2022-11-08T13:14:51.040Z,18.07
2022-11-08T13:17:20.045Z,22.80
2022-11-08T13:19:29.856Z,13.65
2022-11-08T13:21:43.264Z,10.23
2022-11-08T13:23:44.932Z,12.00
2022-11-08T13:25:47.703Z,12.10
2022-11-08T13:27:49.777Z,18.15
2022-11-08T13:29:53.049Z,14.45
2022-11-08T13:32:02.401Z,19.38
2022-11-08T13:34:19.307Z,16.38
2022-11-08T13:36:41.821Z,17.73
2022-11-08T13:39:10.129Z,21.52
2022-11-08T13:41:20.364Z,9.73
2022-11-08T13:43:26.207Z,19.02
2022-11-08T13:45:33.668Z,14.35
2022-11-08T13:47:36.350Z,16.80
2022-11-08T13:49:38.024Z,12.60
2022-11-08T13:51:44.550Z,10.32
2022-11-08T13:53:54.458Z,7.88
2022-11-08T13:55:57.978Z,8.83
2022-11-08T13:58:01.169Z,9.80
2022-11-08T14:00:05.501Z,12.18
2022-11-08T14:02:39.548Z,7.80
2022-11-08T14:04:41.434Z,8.00
2022-11-08T14:07:03.731Z,8.52
2022-11-08T14:09:20.631Z,3.72
2022-11-08T14:11:50.338Z,10.52
2022-11-08T14:14:11.655Z,7.07
2022-11-08T14:16:18.727Z,7.40
2022-11-08T14:18:32.982Z,9.35
2022-11-08T14:20:43.298Z,6.22
2022-11-08T14:22:49.966Z,7.28
2022-11-08T14:24:54.998Z,16.73
2022-11-08T14:26:57.001Z,7.82
2022-11-08T14:29:00.222Z,10.85
2022-11-08T14:31:07.272Z,12.38
2022-11-08T14:33:22.905Z,11.05
2022-11-08T14:35:25.887Z,8.13
2022-11-08T14:37:28.265Z,12.93
2022-11-08T14:39:36.352Z,10.65
2022-11-08T14:41:39.579Z,7.60
2022-11-08T14:43:46.642Z,15.98
2022-11-08T14:45:49.131Z,13.43
2022-11-08T14:48:01.774Z,14.05
2022-11-08T14:50:03.616Z,10.93
2022-11-08T14:52:11.349Z,12.98
2022-11-08T14:54:25.182Z,15.00
2022-11-08T14:56:36.253Z,6.05
2022-11-08T14:58:37.929Z,11.00
2022-11-08T15:00:43.185Z,12.77
2022-11-08T15:02:49.637Z,11.07
2022-11-08T15:04:51.294Z,14.77
2022-11-08T15:06:56.310Z,11.15
2022-11-08T15:08:58.577Z,6.95
2022-11-08T15:11:11.011Z,7.38
2022-11-08T15:13:12.708Z,12.15
2022-11-08T15:15:20.502Z,11.98
2022-11-08T15:17:39.633Z,11.52
2022-11-08T15:19:44.360Z,9.18
2022-11-08T15:21:52.126Z,17.15
2022-11-08T15:24:04.006Z,15.88
2022-11-08T15:26:05.745Z,11.88
2022-11-08T15:28:16.503Z,13.27
2022-11-08T15:30:20.007Z,7.10
2022-11-08T15:32:22.669Z,15.60
2022-11-08T15:34:39.074Z,9.25
2022-11-08T15:36:40.741Z,10.95
2022-11-08T15:38:47.414Z,13.27
2022-11-08T15:40:54.463Z,14.63
2022-11-08T15:42:56.403Z,8.30
2022-11-08T15:45:21.947Z,9.15
2022-11-08T15:47:41.543Z,11.55
2022-11-08T15:49:45.264Z,11.30
2022-11-08T15:51:49.796Z,9.93
2022-11-08T15:53:51.937Z,7.30
2022-11-08T15:56:01.810Z,13.13
2022-11-08T15:58:04.883Z,9.27
2022-11-08T16:00:07.193Z,18.55
2022-11-08T16:02:14.578Z,5.35
2022-11-08T16:04:16.213Z,6.80
2022-11-08T16:06:18.013Z,7.30
2022-11-08T16:08:21.149Z,8.15
2022-11-08T16:10:50.872Z,10.80
2022-11-08T16:12:53.346Z,10.80
2022-11-08T16:14:58.008Z,6.50
2022-11-08T16:16:59.697Z,11.65
2022-11-08T16:19:01.529Z,12.55
2022-11-08T16:21:03.170Z,7.78
2022-11-08T16:23:06.981Z,16.50
2022-11-08T16:25:08.881Z,8.55
2022-11-08T16:27:10.686Z,17.85
2022-11-08T16:29:19.654Z,12.82
2022-11-08T16:31:21.333Z,8.95
2022-11-08T16:33:25.435Z,14.50
2022-11-08T16:35:27.192Z,10.63
2022-11-08T16:37:28.886Z,6.95
2022-11-08T16:39:30.553Z,7.15
2022-11-08T16:41:42.643Z,8.27
2022-11-08T16:43:45.058Z,9.27
2022-11-08T16:48:16.354Z,16.85
2022-11-08T16:50:21.262Z,14.10
2022-11-08T16:52:22.869Z,9.23
2022-11-08T16:54:28.411Z,11.38
2022-11-08T16:56:30.244Z,11.70
2022-11-08T16:58:31.989Z,15.93
2022-11-08T17:00:33.896Z,13.55
2022-11-08T17:02:38.372Z,12.35
2022-11-08T17:04:40.022Z,14.85
2022-11-08T17:06:41.703Z,11.65
2022-11-08T17:08:44.132Z,10.70
2022-11-08T17:10:46.028Z,9.75
2022-11-08T17:12:48.545Z,11.32
2022-11-08T17:14:50.147Z,13.13
2022-11-08T17:16:53.735Z,12.40
2022-11-08T17:18:55.913Z,14.75
2022-11-08T17:21:07.421Z,13.63
2022-11-08T17:23:18.283Z,10.48
2022-11-08T17:25:22.380Z,10.18
2022-11-08T17:27:24.000Z,16.65
2022-11-08T17:29:25.825Z,16.48
2022-11-08T17:31:27.983Z,19.17
2022-11-08T17:33:29.638Z,18.58
2022-11-08T17:35:31.253Z,12.82
2022-11-08T17:37:33.759Z,13.05
2022-11-08T17:39:35.349Z,14.23
2022-11-08T17:41:38.341Z,13.82
2022-11-08T17:43:41.390Z,15.52
2022-11-08T17:45:43.156Z,15.63
2022-11-08T17:47:44.825Z,19.38
2022-11-08T17:49:46.417Z,13.75
2022-11-08T17:51:48.019Z,15.13
2022-11-08T17:53:49.685Z,16.90
2022-11-08T17:55:56.491Z,12.68
2022-11-08T17:57:59.021Z,11.88
2022-11-08T18:00:00.720Z,14.48
2022-11-08T18:02:03.303Z,18.25
2022-11-08T18:04:05.495Z,18.02
2022-11-08T18:06:11.567Z,19.20
2022-11-08T18:08:13.240Z,15.77
2022-11-08T18:10:16.573Z,20.45
2022-11-08T18:12:18.333Z,24.25
2022-11-08T18:14:28.078Z,20.83
2022-11-08T18:16:30.213Z,17.80
2022-11-08T18:18:31.817Z,18.58
2022-11-08T18:20:33.474Z,18.48
2022-11-08T18:22:35.220Z,19.98
2022-11-08T18:24:36.939Z,16.48
2022-11-08T18:26:39.189Z,16.48
2022-11-08T18:28:42.761Z,22.42
2022-11-08T18:30:48.123Z,21.33
2022-11-08T18:32:50.043Z,18.25
